createdAt,value
2022-09-28T00:01:23.290Z,98808.80
2022-09-28T00:03:58.341Z,98806.00
2022-09-28T00:06:28.867Z,98799.80
2022-09-28T00:08:56.614Z,98799.00
2022-09-28T00:11:28.290Z,98799.20
2022-09-28T00:14:03.774Z,98798.20
2022-09-28T00:16:45.106Z,98795.20
2022-09-28T00:19:13.750Z,98793.00
2022-09-28T00:21:42.700Z,98796.00
2022-09-28T00:24:19.031Z,98791.40
2022-09-28T00:26:56.600Z,98793.20
2022-09-28T00:29:35.100Z,98790.40
2022-09-28T00:32:07.177Z,98787.00
2022-09-28T00:34:41.389Z,98789.20
2022-09-28T00:37:09.874Z,98793.60
2022-09-28T00:39:38.488Z,98785.00
2022-09-28T00:42:24.348Z,98786.00
2022-09-28T00:44:57.023Z,98780.00
2022-09-28T00:47:40.656Z,98776.40
2022-09-28T00:50:29.244Z,98773.80
2022-09-28T00:53:13.205Z,98776.40
2022-09-28T00:55:53.415Z,98778.40
2022-09-28T00:58:29.962Z,98773.60
2022-09-28T01:00:59.569Z,98774.60
2022-09-28T01:03:29.170Z,98770.80
2022-09-28T01:05:59.963Z,98768.40
2022-09-28T01:08:29.494Z,98765.00
2022-09-28T01:10:59.261Z,98771.60
2022-09-28T01:13:28.772Z,98773.00
2022-09-28T01:16:17.037Z,98768.00
2022-09-28T01:19:40.570Z,98768.40
2022-09-28T01:22:47.920Z,98765.40
2022-09-28T01:25:49.063Z,98763.20
2022-09-28T01:28:20.793Z,98764.00
2022-09-28T01:31:03.837Z,98759.20
2022-09-28T01:33:50.153Z,98757.20
2022-09-28T01:36:30.227Z,98757.80
2022-09-28T01:39:05.576Z,98757.80
2022-09-28T01:41:40.336Z,98760.00
2022-09-28T01:44:16.058Z,98757.20
2022-09-28T01:46:50.289Z,98758.60
2022-09-28T01:49:21.335Z,98751.60
2022-09-28T01:52:03.273Z,98756.60
2022-09-28T01:55:00.286Z,98754.60
2022-09-28T01:57:45.767Z,98751.60
2022-09-28T02:00:16.041Z,98748.60
2022-09-28T02:03:17.667Z,98749.80
2022-09-28T02:05:56.315Z,98745.80
2022-09-28T02:08:37.404Z,98748.00
2022-09-28T02:11:17.543Z,98748.20
2022-09-28T02:13:58.958Z,98742.60
2022-09-28T02:16:28.700Z,98743.80
2022-09-28T02:18:56.166Z,98748.60
2022-09-28T02:21:28.145Z,98748.60
2022-09-28T02:24:07.156Z,98747.40
2022-09-28T02:26:43.362Z,98749.60
2022-09-28T02:29:10.281Z,98752.00
2022-09-28T02:31:37.373Z,98752.00
2022-09-28T02:34:04.725Z,98757.00
2022-09-28T02:36:33.978Z,98752.20
2022-09-28T02:39:02.491Z,98760.60
2022-09-28T02:42:07.734Z,98756.20
2022-09-28T02:44:50.666Z,98758.40
2022-09-28T02:47:29.491Z,98762.60
2022-09-28T02:50:23.367Z,98759.80
2022-09-28T02:53:11.380Z,98762.00
2022-09-28T02:56:23.461Z,98758.80
2022-09-28T02:58:50.891Z,98761.80
2022-09-28T03:01:58.615Z,98762.20
2022-09-28T03:04:42.465Z,98756.60
2022-09-28T03:07:31.242Z,98756.00
2022-09-28T03:10:16.194Z,98759.60
2022-09-28T03:12:48.192Z,98758.60
2022-09-28T03:15:30.076Z,98751.80
2022-09-28T03:17:58.424Z,98754.60
2022-09-28T03:20:31.451Z,98754.40
2022-09-28T03:23:20.110Z,98759.40
2022-09-28T03:25:44.879Z,98756.60
2022-09-28T03:28:11.676Z,98759.20
2022-09-28T03:30:39.952Z,98759.60
2022-09-28T03:33:07.129Z,98760.00
2022-09-28T03:35:34.238Z,98759.60
2022-09-28T03:38:01.062Z,98757.40
2022-09-28T03:40:28.546Z,98762.40
2022-09-28T03:42:55.458Z,98760.40
2022-09-28T03:45:22.249Z,98763.60
2022-09-28T03:47:50.229Z,98762.80
2022-09-28T03:50:18.456Z,98758.20
2022-09-28T03:52:45.156Z,98759.40
2022-09-28T03:55:11.852Z,98760.00
2022-09-28T03:57:38.735Z,98760.80
2022-09-28T04:00:06.988Z,98762.20
2022-09-28T04:02:40.685Z,98756.80
2022-09-28T04:05:09.300Z,98759.40
2022-09-28T04:07:37.552Z,98765.60
2022-09-28T04:10:08.711Z,98757.20
2022-09-28T04:12:36.095Z,98757.00
2022-09-28T04:15:05.204Z,98760.00
2022-09-28T04:17:35.493Z,98758.00
2022-09-28T04:20:07.502Z,98764.40
2022-09-28T04:22:40.452Z,98765.20
2022-09-28T04:25:08.071Z,98763.60
2022-09-28T04:27:53.877Z,98766.60
2022-09-28T04:30:21.965Z,98765.00
2022-09-28T04:32:49.356Z,98769.60
2022-09-28T04:35:16.881Z,98769.60
2022-09-28T04:37:43.573Z,98773.40
2022-09-28T04:40:11.010Z,98775.40
2022-09-28T04:42:38.018Z,98773.20
2022-09-28T04:45:06.304Z,98777.80
2022-09-28T04:47:36.095Z,98770.00
2022-09-28T04:50:31.999Z,98771.20
2022-09-28T04:53:19.831Z,98771.00
2022-09-28T04:56:03.899Z,98772.00
2022-09-28T04:58:32.293Z,98769.80
2022-09-28T05:01:03.664Z,98765.00
2022-09-28T05:03:51.149Z,98773.20
2022-09-28T05:06:36.126Z,98773.40
2022-09-28T05:09:07.075Z,98771.60
2022-09-28T05:11:33.772Z,98774.80
2022-09-28T05:14:01.359Z,98769.60
2022-09-28T05:16:30.970Z,98768.60
2022-09-28T05:19:30.576Z,98769.20
2022-09-28T05:22:07.889Z,98768.20
2022-09-28T05:24:46.918Z,98773.00
2022-09-28T05:27:14.243Z,98773.00
2022-09-28T05:29:41.337Z,98771.40
2022-09-28T05:32:26.838Z,98770.40
2022-09-28T05:35:12.983Z,98773.80
2022-09-28T05:37:46.051Z,98772.20
2022-09-28T05:40:13.013Z,98766.00
2022-09-28T05:42:40.771Z,98767.00
2022-09-28T05:45:09.563Z,98763.60
2022-09-28T05:47:40.871Z,98763.20
2022-09-28T05:50:11.900Z,98762.60
2022-09-28T05:52:39.283Z,98760.00
2022-09-28T05:55:08.669Z,98760.80
2022-09-28T05:57:35.561Z,98763.20
2022-09-28T06:00:08.689Z,98759.00
2022-09-28T06:02:41.899Z,98765.00
2022-09-28T06:05:11.275Z,98766.80
2022-09-28T06:07:37.977Z,98772.00
2022-09-28T06:10:05.623Z,98782.20
2022-09-28T06:12:39.943Z,98779.60
2022-09-28T06:15:12.388Z,98779.00
2022-09-28T06:17:39.917Z,98783.00
2022-09-28T06:20:43.717Z,98783.00
2022-09-28T06:23:17.901Z,98780.80
2022-09-28T06:25:44.754Z,98780.80
2022-09-28T06:28:15.068Z,98782.40
2022-09-28T06:30:44.095Z,98791.80
2022-09-28T06:33:16.450Z,98792.60
2022-09-28T06:35:43.348Z,98795.40
2022-09-28T06:38:11.048Z,98794.60
2022-09-28T06:40:38.639Z,98797.60
2022-09-28T06:43:11.729Z,98803.80
2022-09-28T06:45:57.157Z,98806.00
2022-09-28T06:48:42.795Z,98809.00
2022-09-28T06:51:12.476Z,98810.80
2022-09-28T06:53:49.121Z,98813.60
2022-09-28T06:56:32.915Z,98818.40
2022-09-28T06:59:00.682Z,98822.00
2022-09-28T07:01:28.882Z,98818.60
2022-09-28T07:04:09.295Z,98819.00
2022-09-28T07:06:54.788Z,98820.60
2022-09-28T07:09:46.435Z,98821.00
2022-09-28T07:12:36.243Z,98821.80
2022-09-28T07:15:12.318Z,98827.40
2022-09-28T07:17:52.827Z,98831.60
2022-09-28T07:20:25.709Z,98837.00
2022-09-28T07:23:08.396Z,98833.80
2022-09-28T07:26:07.788Z,98839.60
2022-09-28T07:28:55.926Z,98841.00
2022-09-28T07:31:38.698Z,98841.80
2022-09-28T07:34:43.599Z,98847.40
2022-09-28T07:37:37.818Z,98851.60
2022-09-28T07:40:26.146Z,98854.80
2022-09-28T07:42:54.047Z,98859.20
2022-09-28T07:45:23.878Z,98860.80
2022-09-28T07:47:58.824Z,98860.00
2022-09-28T07:50:52.814Z,98867.40
2022-09-28T07:53:31.009Z,98864.40
2022-09-28T07:56:20.162Z,98865.20
2022-09-28T07:59:07.886Z,98868.20
2022-09-28T08:01:53.352Z,98872.80
2022-09-28T08:04:20.616Z,98871.00
2022-09-28T08:06:48.395Z,98873.40
2022-09-28T08:09:15.301Z,98876.00
2022-09-28T08:12:08.761Z,98880.20
2022-09-28T08:14:42.160Z,98882.80
2022-09-28T08:17:15.918Z,98884.60
2022-09-28T08:20:10.902Z,98885.80
2022-09-28T08:22:38.835Z,98887.20
2022-09-28T08:25:06.869Z,98882.80
2022-09-28T08:27:33.537Z,98889.00
2022-09-28T08:30:01.318Z,98888.60
2022-09-28T08:32:51.163Z,98890.60
2022-09-28T08:35:58.912Z,98901.80
2022-09-28T08:38:51.596Z,98894.60
2022-09-28T08:41:50.841Z,98905.80
2022-09-28T08:45:00.257Z,98906.40
2022-09-28T08:48:51.830Z,98911.00
2022-09-28T08:52:00.117Z,98919.20
2022-09-28T08:54:58.282Z,98921.20
2022-09-28T08:57:42.314Z,98917.60
2022-09-28T09:00:21.381Z,98915.00
2022-09-28T09:02:48.856Z,98918.40
2022-09-28T09:05:47.866Z,98924.60
2022-09-28T09:09:02.951Z,98928.40
2022-09-28T09:12:18.550Z,98933.80
2022-09-28T09:15:23.024Z,98936.80
2022-09-28T09:18:27.869Z,98943.00
2022-09-28T09:21:45.823Z,98946.00
2022-09-28T09:24:27.498Z,98952.20
2022-09-28T09:27:21.112Z,98950.40
2022-09-28T09:30:18.992Z,98948.40
2022-09-28T09:33:26.866Z,98954.00
2022-09-28T09:36:54.665Z,98954.80
2022-09-28T09:40:27.738Z,98960.00
2022-09-28T09:43:30.981Z,98962.80
2022-09-28T09:46:22.735Z,98963.20
2022-09-28T09:49:39.943Z,98964.60
2022-09-28T09:52:21.889Z,98962.80
2022-09-28T09:55:00.686Z,98965.00
2022-09-28T09:58:17.105Z,98966.20
2022-09-28T10:00:52.332Z,98967.40
2022-09-28T10:03:29.833Z,98963.80
2022-09-28T10:06:15.702Z,98963.00
2022-09-28T10:08:58.438Z,98967.40
2022-09-28T10:11:32.733Z,98966.80
2022-09-28T10:13:59.968Z,98972.60
2022-09-28T10:16:43.899Z,98967.00
2022-09-28T10:19:21.811Z,98965.60
2022-09-28T10:22:09.896Z,98964.40
2022-09-28T10:24:46.300Z,98964.00
2022-09-28T10:27:21.977Z,98970.40
2022-09-28T10:30:19.335Z,98968.20
2022-09-28T10:32:53.747Z,98976.80
2022-09-28T10:35:42.942Z,98986.00
2022-09-28T10:38:19.827Z,98988.20
2022-09-28T10:40:55.373Z,98985.20
2022-09-28T10:43:30.519Z,98978.40
2022-09-28T10:46:09.928Z,98983.20
2022-09-28T10:48:52.373Z,98978.60
2022-09-28T10:51:20.699Z,98976.80
2022-09-28T10:54:02.340Z,98979.40
2022-09-28T10:56:57.954Z,98980.00
2022-09-28T10:59:41.566Z,98982.40
2022-09-28T11:02:34.773Z,98979.40
2022-09-28T11:05:22.812Z,98982.40
2022-09-28T11:07:52.719Z,98981.20
2022-09-28T11:10:32.908Z,98984.40
2022-09-28T11:13:10.398Z,98981.40
2022-09-28T11:15:44.363Z,98984.00
2022-09-28T11:18:34.513Z,98988.00
2022-09-28T11:21:28.892Z,98992.80
2022-09-28T11:24:25.535Z,98987.40
2022-09-28T11:27:00.177Z,98988.40
2022-09-28T11:29:43.690Z,98992.80
2022-09-28T11:32:47.263Z,98990.60
2022-09-28T11:35:32.620Z,98989.60
2022-09-28T11:38:36.074Z,98989.20
2022-09-28T11:41:46.893Z,98990.20
2022-09-28T11:44:49.000Z,98988.00
2022-09-28T11:47:46.385Z,98986.00
2022-09-28T11:50:36.054Z,98991.60
2022-09-28T11:53:25.295Z,98993.00
2022-09-28T11:56:27.524Z,98989.40
2022-09-28T11:59:04.033Z,98983.60
2022-09-28T12:01:52.592Z,98988.60
2022-09-28T12:04:40.956Z,98987.80
2022-09-28T12:07:19.316Z,98985.60
2022-09-28T12:09:58.643Z,98989.40
2022-09-28T12:12:40.243Z,98994.40
2022-09-28T12:16:06.828Z,98988.80
2022-09-28T12:18:56.509Z,98987.80
2022-09-28T12:21:59.855Z,98989.80
2022-09-28T12:24:40.114Z,98981.20
2022-09-28T12:27:09.745Z,98989.20
2022-09-28T12:30:04.276Z,98990.00
2022-09-28T12:32:43.057Z,98989.60
2022-09-28T12:35:42.158Z,98989.60
2022-09-28T12:39:17.526Z,98992.20
2022-09-28T12:42:14.825Z,98986.00
2022-09-28T12:45:08.808Z,98987.80
2022-09-28T12:48:04.995Z,98987.80
2022-09-28T12:50:57.212Z,98990.00
2022-09-28T12:54:11.149Z,98994.60
2022-09-28T12:57:15.527Z,98998.40
2022-09-28T13:00:04.616Z,98990.60
2022-09-28T13:03:15.508Z,98993.80
2022-09-28T13:06:00.889Z,98995.80
2022-09-28T13:09:01.296Z,98992.40
2022-09-28T13:12:23.281Z,98997.00
2022-09-28T13:15:34.400Z,98998.80
2022-09-28T13:18:29.357Z,98997.20
2022-09-28T13:21:02.011Z,98988.00
2022-09-28T13:23:50.397Z,98986.80
2022-09-28T13:26:28.125Z,98984.60
2022-09-28T13:29:04.368Z,98981.80
2022-09-28T13:31:35.962Z,98984.00
2022-09-28T13:34:07.263Z,98985.80
2022-09-28T13:36:37.140Z,98982.00
2022-09-28T13:39:24.335Z,98979.60
2022-09-28T13:41:51.108Z,98983.60
2022-09-28T13:45:09.562Z,98984.40
2022-09-28T13:48:11.993Z,98985.60
2022-09-28T13:51:27.375Z,98988.60
2022-09-28T13:54:25.364Z,98988.80
2022-09-28T13:57:20.392Z,98984.80
2022-09-28T14:00:22.431Z,98979.00
2022-09-28T14:03:06.579Z,98985.40
2022-09-28T14:05:49.241Z,98987.40
2022-09-28T14:08:31.019Z,98986.20
2022-09-28T14:11:24.799Z,98989.00
2022-09-28T14:14:11.838Z,98988.00
2022-09-28T14:16:43.513Z,98990.20
2022-09-28T14:19:26.776Z,98988.20
2022-09-28T14:22:21.431Z,98991.60
2022-09-28T14:25:23.651Z,98986.00
2022-09-28T14:28:17.906Z,98992.60
2022-09-28T14:30:50.474Z,98996.40
2022-09-28T14:33:32.877Z,98998.80
2022-09-28T14:36:05.045Z,99000.80
2022-09-28T14:39:03.158Z,98996.00
2022-09-28T14:41:44.923Z,98997.20
2022-09-28T14:44:16.394Z,99002.80
2022-09-28T14:46:44.521Z,98997.40
2022-09-28T14:49:17.727Z,98999.20
2022-09-28T14:51:53.360Z,98999.40
2022-09-28T14:54:45.380Z,98998.60
2022-09-28T14:57:18.327Z,99001.80
2022-09-28T14:59:46.973Z,98996.20
2022-09-28T15:02:23.337Z,98985.40
2022-09-28T15:04:53.194Z,98978.40
2022-09-28T15:07:27.115Z,98973.20
2022-09-28T15:09:57.289Z,98967.80
2022-09-28T15:12:31.790Z,98963.60
2022-09-28T15:15:03.551Z,98968.60
2022-09-28T15:17:39.952Z,98971.20
2022-09-28T15:20:30.489Z,98999.00
2022-09-28T15:23:00.418Z,99004.80
2022-09-28T15:25:31.761Z,99012.80
2022-09-28T15:28:06.583Z,99015.80
2022-09-28T15:30:36.731Z,99015.20
2022-09-28T15:33:24.328Z,99014.00
2022-09-28T15:36:05.748Z,99017.20
2022-09-28T15:38:35.084Z,99014.60
2022-09-28T15:41:07.305Z,99016.40
2022-09-28T15:43:37.223Z,99029.20
2022-09-28T15:46:21.027Z,99024.60
2022-09-28T15:48:59.681Z,99027.80
2022-09-28T15:51:29.108Z,99032.80
2022-09-28T15:54:09.330Z,99039.00
2022-09-28T15:57:02.699Z,99038.80
2022-09-28T15:59:35.216Z,99049.60
2022-09-28T16:02:15.634Z,99048.60
2022-09-28T16:05:01.423Z,99052.20
2022-09-28T16:07:38.641Z,99055.20
2022-09-28T16:10:11.434Z,99055.00
2022-09-28T16:12:38.019Z,99067.60
2022-09-28T16:15:34.445Z,99071.40
2022-09-28T16:18:23.604Z,99069.20
2022-09-28T16:20:53.653Z,99070.80
2022-09-28T16:23:26.927Z,99071.20
2022-09-28T16:26:02.356Z,99071.00
2022-09-28T16:28:35.100Z,99073.20
2022-09-28T16:31:29.045Z,99070.20
2022-09-28T16:34:09.544Z,99068.40
2022-09-28T16:36:45.746Z,99071.20
2022-09-28T16:39:16.445Z,99073.20
2022-09-28T16:41:59.819Z,99081.40
2022-09-28T16:44:32.743Z,99088.80
2022-09-28T16:47:00.872Z,99093.80
2022-09-28T16:49:28.973Z,99100.20
2022-09-28T16:51:55.712Z,99103.00
2022-09-28T16:54:44.055Z,99106.80
2022-09-28T16:57:16.347Z,99109.20
2022-09-28T16:59:43.042Z,99108.40
2022-09-28T17:05:07.173Z,99111.80
2022-09-28T17:07:34.583Z,99116.80
2022-09-28T17:10:01.387Z,99115.80
2022-09-28T17:12:28.981Z,99116.00
2022-09-28T17:14:55.714Z,99120.00
2022-09-28T17:17:22.741Z,99121.80
2022-09-28T17:19:49.451Z,99122.00
2022-09-28T17:22:16.868Z,99123.40
2022-09-28T17:24:45.712Z,99120.20
2022-09-28T17:27:20.915Z,99118.00
2022-09-28T17:29:47.672Z,99122.00
2022-09-28T17:32:19.115Z,99122.40
2022-09-28T17:34:55.941Z,99132.20
2022-09-28T17:37:36.185Z,99127.60
2022-09-28T17:40:15.721Z,99129.40
2022-09-28T17:42:42.556Z,99129.40
2022-09-28T17:45:09.802Z,99132.00
2022-09-28T17:47:36.534Z,99131.20
2022-09-28T17:50:32.868Z,99131.20
2022-09-28T17:53:05.832Z,99131.80
2022-09-28T17:55:36.633Z,99137.20
2022-09-28T17:58:22.091Z,99141.80
2022-09-28T18:00:51.596Z,99139.60
2022-09-28T18:03:24.411Z,99139.00
2022-09-28T18:06:08.005Z,99138.60
2022-09-28T18:08:36.950Z,99143.40
2022-09-28T18:11:03.914Z,99141.00
2022-09-28T18:13:30.647Z,99144.60
2022-09-28T18:15:57.453Z,99147.40
2022-09-28T18:18:26.222Z,99146.20
2022-09-28T18:20:53.206Z,99150.40
2022-09-28T18:23:19.958Z,99151.60
2022-09-28T18:25:48.279Z,99150.80
2022-09-28T18:28:16.342Z,99151.80
2022-09-28T18:30:45.720Z,99152.40
2022-09-28T18:33:15.399Z,99150.20
2022-09-28T18:35:52.519Z,99150.40
2022-09-28T18:38:21.289Z,99149.40
2022-09-28T18:40:48.421Z,99149.80
2022-09-28T18:43:16.818Z,99152.00
2022-09-28T18:45:43.574Z,99152.20
2022-09-28T18:48:10.303Z,99153.40
2022-09-28T18:50:37.080Z,99153.00
2022-09-28T18:53:13.644Z,99151.80
2022-09-28T18:55:43.068Z,99153.60
2022-09-28T18:58:11.974Z,99156.80
2022-09-28T19:00:41.958Z,99154.00
2022-09-28T19:03:11.413Z,99155.00
2022-09-28T19:05:43.628Z,99154.80
2022-09-28T19:08:10.758Z,99149.80
2022-09-28T19:10:37.578Z,99148.80
2022-09-28T19:13:04.347Z,99152.00
2022-09-28T19:15:33.143Z,99155.20
2022-09-28T19:17:59.909Z,99151.20
2022-09-28T19:20:26.705Z,99154.80
2022-09-28T19:22:53.521Z,99160.60
2022-09-28T19:25:20.235Z,99160.40
2022-09-28T19:27:47.997Z,99159.40
2022-09-28T19:30:14.788Z,99165.00
2022-09-28T19:32:42.756Z,99171.60
2022-09-28T19:35:09.967Z,99171.20
2022-09-28T19:37:39.500Z,99168.20
2022-09-28T19:40:07.125Z,99172.40
2022-09-28T19:42:36.349Z,99172.60
2022-09-28T19:45:03.430Z,99174.60
2022-09-28T19:47:31.688Z,99179.20
2022-09-28T19:49:58.400Z,99176.20
2022-09-28T19:52:25.173Z,99177.00
2022-09-28T19:55:00.287Z,99181.60
2022-09-28T19:57:32.580Z,99182.80
2022-09-28T20:00:03.441Z,99188.60
2022-09-28T20:02:34.849Z,99189.00
2022-09-28T20:05:01.847Z,99189.40
2022-09-28T20:07:32.822Z,99190.60
2022-09-28T20:09:59.743Z,99204.40
2022-09-28T20:12:26.466Z,99203.60
2022-09-28T20:14:53.305Z,99208.00
2022-09-28T20:17:21.833Z,99210.60
2022-09-28T20:19:51.826Z,99213.60
2022-09-28T20:22:20.086Z,99214.20
2022-09-28T20:24:46.805Z,99213.60
2022-09-28T20:27:13.493Z,99213.20
2022-09-28T20:29:40.233Z,99211.00
2022-09-28T20:32:07.008Z,99212.80
2022-09-28T20:34:34.058Z,99213.60
2022-09-28T20:37:01.427Z,99215.00
2022-09-28T20:39:28.051Z,99221.60
2022-09-28T20:41:55.879Z,99217.60
2022-09-28T20:44:22.705Z,99219.60
2022-09-28T20:46:51.749Z,99217.60
2022-09-28T20:49:18.433Z,99214.60
2022-09-28T20:51:45.181Z,99217.80
2022-09-28T20:54:11.911Z,99223.40
2022-09-28T20:56:40.086Z,99219.20
2022-09-28T20:59:10.092Z,99220.40
2022-09-28T21:01:38.220Z,99223.80
2022-09-28T21:04:07.571Z,99226.00
2022-09-28T21:06:41.048Z,99227.80
2022-09-28T21:09:10.758Z,99225.60
2022-09-28T21:11:38.878Z,99231.00
2022-09-28T21:14:09.300Z,99229.40
2022-09-28T21:16:36.302Z,99227.60
2022-09-28T21:19:04.156Z,99227.80
2022-09-28T21:21:31.233Z,99233.80
2022-09-28T21:23:59.295Z,99231.60
2022-09-28T21:26:31.231Z,99230.20
2022-09-28T21:29:05.187Z,99229.00
2022-09-28T21:31:42.423Z,99231.60
2022-09-28T21:34:21.445Z,99233.60
2022-09-28T21:36:52.801Z,99230.60
2022-09-28T21:39:20.718Z,99234.80
2022-09-28T21:41:47.600Z,99230.40
2022-09-28T21:44:14.452Z,99232.00
2022-09-28T21:46:42.084Z,99233.80
2022-09-28T21:49:12.632Z,99235.40
2022-09-28T21:51:39.334Z,99236.80
2022-09-28T21:54:06.717Z,99232.80
2022-09-28T21:56:34.164Z,99237.20
2022-09-28T21:59:01.350Z,99233.40
2022-09-28T22:01:29.173Z,99235.00
2022-09-28T22:03:57.818Z,99234.20
2022-09-28T22:06:28.239Z,99230.00
2022-09-28T22:08:56.060Z,99230.00
2022-09-28T22:11:28.108Z,99235.80
2022-09-28T22:14:00.334Z,99231.20
2022-09-28T22:16:31.154Z,99237.40
2022-09-28T22:18:59.824Z,99236.20
2022-09-28T22:21:31.838Z,99237.60
2022-09-28T22:24:03.906Z,99238.80
2022-09-28T22:26:33.475Z,99240.60
2022-09-28T22:29:09.342Z,99238.40
2022-09-28T22:31:40.351Z,99238.80
2022-09-28T22:34:07.994Z,99242.00
2022-09-28T22:36:35.516Z,99244.00
2022-09-28T22:39:03.248Z,99244.40
2022-09-28T22:41:30.278Z,99246.00
2022-09-28T22:43:57.705Z,99245.20
2022-09-28T22:46:32.422Z,99245.80
2022-09-28T22:49:00.046Z,99247.40
2022-09-28T22:51:29.575Z,99245.40
2022-09-28T22:53:56.797Z,99244.20
2022-09-28T22:56:24.604Z,99250.00
2022-09-28T22:58:51.607Z,99243.20
2022-09-28T23:01:24.993Z,99247.40
2022-09-28T23:03:53.954Z,99250.80
2022-09-28T23:06:24.940Z,99241.60
2022-09-28T23:08:53.315Z,99243.60
2022-09-28T23:11:20.743Z,99243.20
2022-09-28T23:13:52.699Z,99242.40
2022-09-28T23:16:20.992Z,99243.80
2022-09-28T23:18:49.385Z,99243.60
2022-09-28T23:21:20.812Z,99244.40
2022-09-28T23:23:54.504Z,99239.00
2022-09-28T23:26:29.771Z,99239.60
2022-09-28T23:28:57.584Z,99242.60
2022-09-28T23:31:28.817Z,99244.60
2022-09-28T23:34:03.221Z,99243.40
2022-09-28T23:36:30.946Z,99243.00
2022-09-28T23:38:57.862Z,99240.60
2022-09-28T23:41:24.741Z,99240.20
2022-09-28T23:43:51.503Z,99244.20
2022-09-28T23:46:21.016Z,99238.20
2022-09-28T23:48:50.057Z,99239.60
2022-09-28T23:51:17.307Z,99239.80
2022-09-28T23:53:44.106Z,99234.60
2022-09-28T23:56:11.507Z,99236.80
2022-09-28T23:58:38.303Z,99237.00
